Time;durP1;ratioP1;P1;durP2;ratioP2;P2;SDS_P1;SDS_P2;PMS_P1;PMS_P2;Temp;Humidity;BMP_temperature;BMP_pressure;BME280_temperature;BME280_humidity;BME280_pressure;Samples;Min_cycle;Max_cycle;Signal;HPM_P1;HPM_P2
2022/01/29 00:02:16;;;;;;;71.53;38.70;;;;;;;;;;5013993;28;94728;-75
2022/01/29 00:04:42;;;;;;;67.75;36.80;;;;;;;;;;5015888;28;96527;-76
2022/01/29 00:07:09;;;;;;;66.88;37.67;;;;;;;;;;5015636;28;93635;-75
2022/01/29 00:09:35;;;;;;;70.15;36.50;;;;;;;;;;5016021;28;92344;-75
2022/01/29 00:12:02;;;;;;;71.40;39.45;;;;;;;;;;5018845;28;93481;-75
2022/01/29 00:14:28;;;;;;;77.07;37.97;;;;;;;;;;5015390;28;92357;-75
2022/01/29 00:16:54;;;;;;;69.63;38.60;;;;;;;;;;4997995;28;94554;-75
2022/01/29 00:19:21;;;;;;;79.00;38.33;;;;;;;;;;5016246;28;92951;-75
2022/01/29 00:21:47;;;;;;;77.10;39.97;;;;;;;;;;5017676;28;92199;-74
2022/01/29 00:24:14;;;;;;;82.22;39.35;;;;;;;;;;5019352;28;93850;-75
2022/01/29 00:26:40;;;;;;;76.35;37.75;;;;;;;;;;5017260;28;95567;-75
2022/01/29 00:29:16;;;;;;;76.75;38.45;;;;;;;;;;4976189;28;92539;-75
2022/01/29 00:31:43;;;;;;;73.35;37.00;;;;;;;;;;4977799;28;92581;-75
2022/01/29 00:34:09;;;;;;;83.38;38.47;;;;;;;;;;4980237;28;93605;-75
2022/01/29 00:36:35;;;;;;;72.82;35.88;;;;;;;;;;4977476;28;92916;-75
2022/01/29 00:39:02;;;;;;;71.20;35.85;;;;;;;;;;4977135;28;93661;-75
2022/01/29 00:41:29;;;;;;;72.85;36.72;;;;;;;;;;4977075;28;92434;-76
2022/01/29 00:43:55;;;;;;;75.85;36.03;;;;;;;;;;4977255;28;93384;-75
2022/01/29 00:46:22;;;;;;;67.38;34.05;;;;;;;;;;4977140;28;93620;-75
2022/01/29 00:48:48;;;;;;;69.03;36.67;;;;;;;;;;4977095;28;92335;-75
2022/01/29 00:51:15;;;;;;;65.50;34.92;;;;;;;;;;4975390;28;94750;-75
2022/01/29 00:53:41;;;;;;;71.45;39.17;;;;;;;;;;4976971;28;93562;-75
2022/01/29 00:56:09;;;;;;;61.40;33.40;;;;;;;;;;4979959;28;92361;-75
2022/01/29 00:58:38;;;;;;;66.47;34.33;;;;;;;;;;4976997;28;92819;-75
2022/01/29 01:01:04;;;;;;;69.43;35.20;;;;;;;;;;5012959;28;92245;-75
2022/01/29 01:03:31;;;;;;;70.32;34.72;;;;;;;;;;5018428;28;92216;-75
2022/01/29 01:05:57;;;;;;;66.25;33.22;;;;;;;;;;5018427;28;93571;-75
2022/01/29 01:08:24;;;;;;;64.10;32.47;;;;;;;;;;5018980;28;91540;-75
2022/01/29 01:10:50;;;;;;;64.95;32.35;;;;;;;;;;5018224;28;92727;-76
2022/01/29 01:13:16;;;;;;;63.90;31.33;;;;;;;;;;5018526;28;93737;-75
2022/01/29 01:15:43;;;;;;;66.88;30.73;;;;;;;;;;4999011;28;94970;-75
2022/01/29 01:18:09;;;;;;;64.97;32.10;;;;;;;;;;5021310;28;94039;-75
2022/01/29 01:20:36;;;;;;;62.17;31.30;;;;;;;;;;5018634;28;92263;-74
2022/01/29 01:23:02;;;;;;;61.92;32.10;;;;;;;;;;5018496;28;93156;-74
2022/01/29 01:25:28;;;;;;;58.20;31.48;;;;;;;;;;5017717;28;93173;-75
2022/01/29 01:27:56;;;;;;;61.25;30.30;;;;;;;;;;5018523;28;92394;-75
2022/01/29 01:30:22;;;;;;;64.45;30.13;;;;;;;;;;5018224;28;93135;-75
2022/01/29 01:32:49;;;;;;;66.10;32.10;;;;;;;;;;5018618;28;92811;-75
2022/01/29 01:35:24;;;;;;;62.60;29.55;;;;;;;;;;5018292;28;92282;-74
2022/01/29 01:38:04;;;;;;;57.75;27.40;;;;;;;;;;5020803;28;93756;-75
2022/01/29 01:40:30;;;;;;;59.33;28.50;;;;;;;;;;5016322;28;94735;-75
2022/01/29 01:43:00;;;;;;;52.47;28.73;;;;;;;;;;5017895;28;95767;-76
2022/01/29 01:45:27;;;;;;;58.22;29.00;;;;;;;;;;5018154;28;93576;-75
2022/01/29 01:47:54;;;;;;;58.75;27.85;;;;;;;;;;5017482;28;92282;-75
2022/01/29 01:50:21;;;;;;;61.47;28.45;;;;;;;;;;5000042;28;93687;-75
2022/01/29 01:52:48;;;;;;;65.35;32.55;;;;;;;;;;5017405;28;93487;-75
2022/01/29 01:55:14;;;;;;;56.72;30.10;;;;;;;;;;5017871;28;92175;-75
2022/01/29 01:57:41;;;;;;;53.05;29.08;;;;;;;;;;5018220;28;93690;-75
2022/01/29 02:00:07;;;;;;;64.47;29.63;;;;;;;;;;5002776;28;94975;-75
2022/01/29 02:02:40;;;;;;;56.28;27.80;;;;;;;;;;5017544;28;93307;-75
2022/01/29 02:05:09;;;;;;;49.75;27.77;;;;;;;;;;5015589;28;95382;-75
2022/01/29 02:07:35;;;;;;;54.17;28.70;;;;;;;;;;5017680;28;92374;-75
2022/01/29 02:10:03;;;;;;;51.08;27.77;;;;;;;;;;5017572;28;93440;-75
2022/01/29 02:12:33;;;;;;;57.28;29.58;;;;;;;;;;4999589;28;96219;-75
2022/01/29 02:15:04;;;;;;;48.33;27.38;;;;;;;;;;5017612;28;92213;-75
2022/01/29 02:17:31;;;;;;;48.55;26.42;;;;;;;;;;5017110;28;93478;-75
2022/01/29 02:19:57;;;;;;;46.60;26.23;;;;;;;;;;5017374;28;93731;-75
2022/01/29 02:22:23;;;;;;;46.47;24.75;;;;;;;;;;5021206;28;91730;-75
2022/01/29 02:24:50;;;;;;;47.03;25.95;;;;;;;;;;5017684;28;92766;-75
2022/01/29 02:27:16;;;;;;;45.53;24.70;;;;;;;;;;5016614;27;92476;-75
2022/01/29 02:29:44;;;;;;;41.83;23.95;;;;;;;;;;5039740;27;95126;-75
2022/01/29 02:32:10;;;;;;;43.30;23.42;;;;;;;;;;5045458;28;93768;-75
2022/01/29 02:34:37;;;;;;;38.17;23.35;;;;;;;;;;5041428;28;92369;-75
2022/01/29 02:37:04;;;;;;;38.80;23.27;;;;;;;;;;5039277;28;93612;-75
2022/01/29 02:39:30;;;;;;;39.97;22.13;;;;;;;;;;5038223;28;93533;-75
2022/01/29 02:41:57;;;;;;;36.17;21.60;;;;;;;;;;5019147;28;92709;-75
2022/01/29 02:44:24;;;;;;;40.35;22.27;;;;;;;;;;5040061;27;93412;-75
2022/01/29 02:46:53;;;;;;;38.80;21.77;;;;;;;;;;5037121;28;91724;-74
2022/01/29 02:49:21;;;;;;;37.47;22.05;;;;;;;;;;5037007;28;92580;-74
2022/01/29 02:51:49;;;;;;;34.30;21.98;;;;;;;;;;5036615;28;93811;-75
2022/01/29 02:54:16;;;;;;;36.45;21.25;;;;;;;;;;5035477;28;94731;-75
2022/01/29 02:56:43;;;;;;;35.95;21.50;;;;;;;;;;5037104;28;95755;-74
2022/01/29 02:59:09;;;;;;;38.15;22.33;;;;;;;;;;5036639;28;93587;-75
2022/01/29 03:01:36;;;;;;;31.58;20.35;;;;;;;;;;5019441;28;92332;-74
2022/01/29 03:04:03;;;;;;;35.30;21.13;;;;;;;;;;5036826;28;92978;-75
2022/01/29 03:06:30;;;;;;;38.50;20.25;;;;;;;;;;5039878;28;92941;-75
2022/01/29 03:08:56;;;;;;;32.75;20.90;;;;;;;;;;5036843;28;93475;-75
2022/01/29 03:11:23;;;;;;;38.63;22.73;;;;;;;;;;5037335;28;92800;-75
2022/01/29 03:13:49;;;;;;;37.90;22.98;;;;;;;;;;5036321;28;92464;-75
2022/01/29 03:16:17;;;;;;;35.65;21.08;;;;;;;;;;5018632;28;95891;-75
2022/01/29 03:18:43;;;;;;;38.65;19.92;;;;;;;;;;5035155;28;95834;-75
2022/01/29 03:21:10;;;;;;;48.67;25.15;;;;;;;;;;5036744;28;92391;-75
2022/01/29 03:23:37;;;;;;;45.28;26.08;;;;;;;;;;5036846;28;93229;-75
2022/01/29 03:26:04;;;;;;;44.75;25.85;;;;;;;;;;5036501;28;93125;-74
2022/01/29 03:28:30;;;;;;;47.78;26.13;;;;;;;;;;5038889;28;92374;-75
2022/01/29 03:30:57;;;;;;;47.45;26.88;;;;;;;;;;5036368;28;93424;-74
2022/01/29 03:33:23;;;;;;;44.20;25.98;;;;;;;;;;5036547;28;92189;-75
2022/01/29 03:35:50;;;;;;;45.38;25.92;;;;;;;;;;5037085;28;93444;-74
2022/01/29 03:38:17;;;;;;;46.25;24.67;;;;;;;;;;5036305;28;93907;-74
2022/01/29 03:40:45;;;;;;;55.03;28.55;;;;;;;;;;5036257;28;92328;-74
2022/01/29 03:43:15;;;;;;;57.22;28.17;;;;;;;;;;5034143;28;94712;-75
2022/01/29 03:45:41;;;;;;;54.80;28.48;;;;;;;;;;5036196;28;93907;-75
2022/01/29 03:48:08;;;;;;;49.53;27.95;;;;;;;;;;5039742;28;92636;-75
2022/01/29 03:50:36;;;;;;;56.67;28.15;;;;;;;;;;5036146;28;93649;-75
2022/01/29 03:53:02;;;;;;;53.05;28.70;;;;;;;;;;5036075;28;92307;-74
2022/01/29 03:55:29;;;;;;;47.28;27.27;;;;;;;;;;5036392;27;93495;-75
2022/01/29 03:57:55;;;;;;;49.60;28.55;;;;;;;;;;5039688;28;92764;-74
2022/01/29 04:00:21;;;;;;;55.67;27.65;;;;;;;;;;5040148;28;91501;-75
2022/01/29 04:02:48;;;;;;;61.80;28.92;;;;;;;;;;5040146;28;92795;-74
2022/01/29 04:05:14;;;;;;;57.33;29.75;;;;;;;;;;5039436;28;93562;-75
2022/01/29 04:07:41;;;;;;;59.10;24.30;;;;;;;;;;5037947;28;94728;-74
2022/01/29 04:10:08;;;;;;;45.33;25.73;;;;;;;;;;5024935;28;95895;-74
2022/01/29 04:12:40;;;;;;;64.13;28.35;;;;;;;;;;5039695;28;92441;-74
2022/01/29 04:15:07;;;;;;;52.92;28.73;;;;;;;;;;5039565;28;92898;-74
2022/01/29 04:17:33;;;;;;;47.92;26.75;;;;;;;;;;5037993;28;93632;-75
2022/01/29 04:20:00;;;;;;;46.92;26.85;;;;;;;;;;5036642;28;93309;-74
2022/01/29 04:22:26;;;;;;;50.15;27.40;;;;;;;;;;5038541;28;93504;-75
2022/01/29 04:24:52;;;;;;;49.97;27.65;;;;;;;;;;5038996;28;92995;-75
2022/01/29 04:27:23;;;;;;;64.35;28.35;;;;;;;;;;5039494;28;92254;-74
2022/01/29 04:29:59;;;;;;;49.05;27.73;;;;;;;;;;5039149;28;93435;-74
2022/01/29 04:32:44;;;;;;;55.55;26.48;;;;;;;;;;5040615;28;96078;-75
2022/01/29 04:35:10;;;;;;;64.57;26.90;;;;;;;;;;5021322;28;95740;-75
2022/01/29 04:37:36;;;;;;;51.13;26.60;;;;;;;;;;5037942;28;92816;-74
2022/01/29 04:40:03;;;;;;;60.15;26.48;;;;;;;;;;5021610;28;92335;-74
2022/01/29 04:42:29;;;;;;;48.42;25.65;;;;;;;;;;5039071;28;92501;-75
2022/01/29 04:44:56;;;;;;;57.13;28.05;;;;;;;;;;5039340;28;92949;-75
2022/01/29 04:47:23;;;;;;;56.13;25.52;;;;;;;;;;5039091;28;92448;-74
2022/01/29 04:49:49;;;;;;;54.63;24.63;;;;;;;;;;5034667;28;93265;-74
2022/01/29 04:52:16;;;;;;;51.53;24.88;;;;;;;;;;5037952;28;93437;-74
2022/01/29 04:54:42;;;;;;;44.55;25.27;;;;;;;;;;5022900;28;92401;-74
2022/01/29 04:57:08;;;;;;;42.40;23.40;;;;;;;;;;5036289;28;96586;-75
2022/01/29 04:59:35;;;;;;;46.03;24.67;;;;;;;;;;5037883;28;92274;-74
2022/01/29 05:02:01;;;;;;;52.65;24.08;;;;;;;;;;5037838;28;92959;-74
2022/01/29 05:04:28;;;;;;;47.70;24.13;;;;;;;;;;5036820;28;93570;-74
2022/01/29 05:06:54;;;;;;;48.72;23.13;;;;;;;;;;5037480;28;92259;-75
2022/01/29 05:09:20;;;;;;;46.17;22.15;;;;;;;;;;5037511;28;93666;-75
2022/01/29 05:11:50;;;;;;;41.35;22.98;;;;;;;;;;5037325;28;93669;-75
2022/01/29 05:14:27;;;;;;;47.20;23.27;;;;;;;;;;5020025;28;93281;-75
2022/01/29 05:26:48;;;;;;;42.60;22.50;;;;;;;;;;5040113;28;92411;-75
2022/01/29 05:27:57;;;;;;;37.22;21.02;;;;;;;;;;5037117;28;92351;-74
2022/01/29 05:30:24;;;;;;;35.38;20.67;;;;;;;;;;5037211;28;93576;-74
2022/01/29 05:32:50;;;;;;;42.50;21.00;;;;;;;;;;5036906;28;93732;-74
2022/01/29 05:35:16;;;;;;;35.75;20.15;;;;;;;;;;5037141;28;92145;-75
2022/01/29 05:37:43;;;;;;;41.63;19.83;;;;;;;;;;5036745;28;92494;-76
2022/01/29 05:40:09;;;;;;;35.70;19.17;;;;;;;;;;5040582;28;93099;-74
2022/01/29 05:42:35;;;;;;;37.78;18.88;;;;;;;;;;5019380;28;93557;-75
2022/01/29 05:45:02;;;;;;;35.72;19.13;;;;;;;;;;5036795;28;93822;-75
2022/01/29 05:47:29;;;;;;;29.98;18.65;;;;;;;;;;5035372;28;94550;-75
2022/01/29 05:49:55;;;;;;;30.23;18.45;;;;;;;;;;5036653;28;95887;-75
2022/01/29 05:52:21;;;;;;;34.20;18.10;;;;;;;;;;4998151;28;1098419;-76
2022/01/29 05:54:48;;;;;;;34.97;18.02;;;;;;;;;;5037934;28;92274;-76
2022/01/29 05:57:15;;;;;;;33.00;18.25;;;;;;;;;;5037910;28;93688;-75
2022/01/29 05:59:42;;;;;;;31.25;18.13;;;;;;;;;;5040870;28;92797;-76
2022/01/29 06:02:08;;;;;;;34.78;17.63;;;;;;;;;;4985283;28;93120;-75
2022/01/29 06:04:36;;;;;;;25.90;17.58;;;;;;;;;;5038450;28;92315;-75
2022/01/29 06:07:03;;;;;;;30.27;17.25;;;;;;;;;;5037717;28;92291;-76
2022/01/29 06:09:29;;;;;;;32.38;17.48;;;;;;;;;;5037999;28;92862;-76
2022/01/29 06:11:55;;;;;;;32.70;18.15;;;;;;;;;;5036036;28;95999;-75
2022/01/29 06:14:22;;;;;;;31.25;17.23;;;;;;;;;;5037848;28;93117;-75
2022/01/29 06:16:48;;;;;;;28.50;15.88;;;;;;;;;;5037803;28;93584;-76
2022/01/29 06:19:14;;;;;;;34.08;17.38;;;;;;;;;;5036709;27;93408;-75
2022/01/29 06:21:41;;;;;;;35.28;18.13;;;;;;;;;;5040338;28;92181;-75
2022/01/29 06:24:07;;;;;;;32.65;17.80;;;;;;;;;;5037612;28;93451;-75
2022/01/29 06:26:33;;;;;;;29.75;17.73;;;;;;;;;;5037623;28;92258;-75
2022/01/29 06:29:00;;;;;;;32.03;17.42;;;;;;;;;;5038005;28;92513;-75
2022/01/29 06:31:26;;;;;;;27.92;16.08;;;;;;;;;;5037420;28;93504;-75
2022/01/29 06:33:53;;;;;;;26.05;16.35;;;;;;;;;;5037313;28;92287;-75
2022/01/29 06:36:19;;;;;;;28.50;17.80;;;;;;;;;;5035424;28;94757;-74
2022/01/29 06:38:45;;;;;;;37.80;19.27;;;;;;;;;;5019524;28;93566;-74
2022/01/29 06:41:12;;;;;;;31.17;18.95;;;;;;;;;;5037462;28;92347;-74
2022/01/29 06:43:38;;;;;;;27.77;18.83;;;;;;;;;;5040257;28;92614;-75
2022/01/29 06:46:05;;;;;;;29.95;17.83;;;;;;;;;;5037157;28;92275;-74
2022/01/29 06:48:31;;;;;;;25.73;17.48;;;;;;;;;;5019339;28;94656;-74
2022/01/29 06:50:57;;;;;;;40.05;19.17;;;;;;;;;;5036453;28;93653;-75
2022/01/29 06:53:24;;;;;;;32.60;18.92;;;;;;;;;;5038016;28;91639;-75
2022/01/29 06:55:50;;;;;;;32.15;20.27;;;;;;;;;;5037500;28;92769;-75
2022/01/29 06:58:16;;;;;;;31.65;19.40;;;;;;;;;;5037050;28;93578;-75
2022/01/29 07:01:03;;;;;;;32.30;19.45;;;;;;;;;;5035566;28;94528;-75
2022/01/29 07:03:30;;;;;;;29.95;18.92;;;;;;;;;;5018877;28;97165;-75
2022/01/29 07:05:56;;;;;;;34.10;17.55;;;;;;;;;;5044686;28;93836;-75
2022/01/29 07:08:22;;;;;;;29.05;19.48;;;;;;;;;;5040662;28;93303;-75
2022/01/29 07:10:50;;;;;;;34.13;19.58;;;;;;;;;;5039475;28;93561;-75
2022/01/29 07:13:19;;;;;;;35.20;19.83;;;;;;;;;;5038824;28;92224;-75
2022/01/29 07:15:46;;;;;;;25.67;17.75;;;;;;;;;;5039073;28;93363;-75
2022/01/29 07:18:12;;;;;;;32.65;19.35;;;;;;;;;;5020596;28;95851;-74
2022/01/29 07:20:38;;;;;;;36.25;20.25;;;;;;;;;;5037600;28;92227;-75
2022/01/29 07:23:06;;;;;;;30.55;20.00;;;;;;;;;;5036518;28;93335;-75
2022/01/29 07:25:33;;;;;;;33.20;20.33;;;;;;;;;;5034655;28;96224;-75
2022/01/29 07:27:59;;;;;;;31.90;19.73;;;;;;;;;;5039067;28;93392;-75
2022/01/29 07:30:26;;;;;;;40.38;21.35;;;;;;;;;;5035204;28;93272;-75
2022/01/29 07:32:52;;;;;;;32.88;19.63;;;;;;;;;;5035771;28;92435;-74
2022/01/29 07:35:19;;;;;;;31.63;20.52;;;;;;;;;;5035617;28;93938;-74
2022/01/29 07:37:50;;;;;;;;;;;;;;;;;;5036252;28;92344;-75
2022/01/29 07:40:17;;;;;;;40.20;20.75;;;;;;;;;;5036200;28;101400;-75
2022/01/29 07:42:43;;;;;;;33.65;20.02;;;;;;;;;;5036145;28;92992;-76
2022/01/29 07:45:09;;;;;;;39.10;21.75;;;;;;;;;;5035599;28;93715;-74
2022/01/29 07:47:36;;;;;;;39.35;20.60;;;;;;;;;;5036245;28;92224;-75
2022/01/29 07:50:03;;;;;;;41.83;21.75;;;;;;;;;;5037498;28;94737;-74
2022/01/29 07:52:31;;;;;;;34.67;19.85;;;;;;;;;;5035903;28;92382;-74
2022/01/29 07:55:02;;;;;;;34.00;20.15;;;;;;;;;;5035677;28;93415;-72
2022/01/29 07:57:29;;;;;;;35.70;20.55;;;;;;;;;;5035867;28;93214;-76
2022/01/29 07:59:55;;;;;;;33.58;19.30;;;;;;;;;;5018199;28;92273;-74
2022/01/29 08:02:21;;;;;;;34.97;20.38;;;;;;;;;;5036160;28;92906;-74
2022/01/29 08:04:48;;;;;;;35.00;19.38;;;;;;;;;;5035806;28;93576;-75
2022/01/29 08:07:14;;;;;;;33.78;19.90;;;;;;;;;;5036507;28;91524;-76
2022/01/29 08:09:40;;;;;;;31.17;19.20;;;;;;;;;;5039065;28;92697;-75
2022/01/29 08:12:07;;;;;;;31.92;20.10;;;;;;;;;;5035771;28;92388;-74
2022/01/29 08:14:33;;;;;;;34.17;20.10;;;;;;;;;;5034112;28;94864;-73
2022/01/29 08:17:00;;;;;;;35.22;19.15;;;;;;;;;;5036061;28;93276;-74
2022/01/29 08:19:26;;;;;;;30.95;19.02;;;;;;;;;;5036140;28;92421;-73
2022/01/29 08:21:52;;;;;;;26.83;18.92;;;;;;;;;;5035879;28;92898;-74
2022/01/29 08:24:19;;;;;;;35.92;20.13;;;;;;;;;;5018284;28;93002;-73
2022/01/29 08:26:45;;;;;;;32.47;18.45;;;;;;;;;;5035487;28;92376;-73
2022/01/29 08:29:12;;;;;;;42.45;19.13;;;;;;;;;;5035565;28;93222;-74
2022/01/29 08:31:38;;;;;;;37.70;18.48;;;;;;;;;;5039199;28;91447;-75
2022/01/29 08:34:05;;;;;;;37.72;18.83;;;;;;;;;;5035710;28;92300;-75
2022/01/29 08:36:31;;;;;;;30.80;17.92;;;;;;;;;;5035635;28;93475;-75
2022/01/29 08:38:57;;;;;;;35.20;18.50;;;;;;;;;;5034198;28;94682;-75
2022/01/29 08:41:26;;;;;;;34.58;17.23;;;;;;;;;;5035067;27;95894;-76
2022/01/29 08:43:52;;;;;;;40.05;18.17;;;;;;;;;;5038921;28;93921;-76
2022/01/29 08:46:19;;;;;;;25.73;17.02;;;;;;;;;;5039155;28;92448;-76
2022/01/29 08:48:54;;;;;;;28.45;15.20;;;;;;;;;;5039135;28;92890;-79
2022/01/29 08:51:20;;;;;;;33.97;16.50;;;;;;;;;;5020662;28;95816;-77
2022/01/29 08:53:47;;;;;;;32.60;16.75;;;;;;;;;;5041857;28;92257;-77
2022/01/29 08:56:15;;;;;;;29.80;15.52;;;;;;;;;;5039228;28;92922;-76
2022/01/29 08:58:43;;;;;;;30.95;15.68;;;;;;;;;;5038785;28;92158;-76
2022/01/29 09:01:11;;;;;;;26.75;15.63;;;;;;;;;;5038855;28;93455;-73
2022/01/29 09:03:37;;;;;;;24.38;15.73;;;;;;;;;;5036898;28;95001;-77
2022/01/29 09:06:04;;;;;;;30.52;14.35;;;;;;;;;;5038805;28;92368;-76
2022/01/29 09:08:30;;;;;;;25.27;13.77;;;;;;;;;;5038334;28;93426;-78
2022/01/29 09:10:57;;;;;;;27.45;14.23;;;;;;;;;;5038491;28;93587;-76
2022/01/29 09:13:25;;;;;;;32.80;16.13;;;;;;;;;;5038957;28;93112;-76
2022/01/29 09:15:51;;;;;;;31.75;13.27;;;;;;;;;;5041443;28;92936;-73
2022/01/29 09:18:17;;;;;;;25.33;12.32;;;;;;;;;;5038397;28;92216;-75
2022/01/29 09:20:44;;;;;;;22.33;12.10;;;;;;;;;;5038888;28;93958;-75
2022/01/29 09:23:10;;;;;;;23.73;11.45;;;;;;;;;;5037873;28;93121;-76
2022/01/29 09:25:37;;;;;;;29.10;11.50;;;;;;;;;;5020815;28;92353;-76
2022/01/29 09:28:04;;;;;;;25.13;10.50;;;;;;;;;;5036745;28;94672;-75
2022/01/29 09:30:31;;;;;;;22.10;10.98;;;;;;;;;;5019921;28;93757;-75
2022/01/29 09:32:58;;;;;;;24.70;10.02;;;;;;;;;;5038326;28;92251;-75
2022/01/29 09:35:25;;;;;;;20.77;9.88;;;;;;;;;;5038273;28;93493;-76
2022/01/29 09:37:51;;;;;;;15.68;9.02;;;;;;;;;;5041446;28;93070;-76
2022/01/29 09:40:18;;;;;;;14.18;8.43;;;;;;;;;;5039363;28;92833;-76
2022/01/29 09:42:46;;;;;;;16.23;8.75;;;;;;;;;;5038720;28;93565;-76
2022/01/29 09:45:13;;;;;;;19.40;8.05;;;;;;;;;;5039290;28;91642;-76
2022/01/29 09:47:43;;;;;;;15.55;7.97;;;;;;;;;;5038721;28;92857;-76
2022/01/29 09:50:11;;;;;;;16.33;7.80;;;;;;;;;;5038289;28;93756;-76
2022/01/29 09:52:37;;;;;;;15.05;7.70;;;;;;;;;;5036855;27;94884;-76
2022/01/29 09:55:06;;;;;;;13.60;7.97;;;;;;;;;;5036360;27;95450;-75
2022/01/29 09:57:33;;;;;;;12.50;6.93;;;;;;;;;;5050234;27;93760;-75
2022/01/29 09:59:59;;;;;;;18.90;7.22;;;;;;;;;;5023632;28;92546;-77
2022/01/29 10:02:26;;;;;;;9.65;6.20;;;;;;;;;;5038464;28;93552;-74
2022/01/29 10:04:56;;;;;;;13.93;6.93;;;;;;;;;;5038293;28;92845;-75
2022/01/29 10:07:27;;;;;;;15.52;6.47;;;;;;;;;;5038394;28;93535;-75
2022/01/29 10:09:54;;;;;;;14.15;6.10;;;;;;;;;;5038892;28;92323;-74
2022/01/29 10:12:25;;;;;;;13.35;6.32;;;;;;;;;;5038291;28;92412;-75
2022/01/29 10:14:53;;;;;;;12.38;5.80;;;;;;;;;;5038672;28;92889;-75
2022/01/29 10:17:38;;;;;;;11.88;5.88;;;;;;;;;;5036161;28;96222;-75
2022/01/29 10:20:12;;;;;;;15.30;6.00;;;;;;;;;;5041297;28;92275;-78
2022/01/29 10:22:39;;;;;;;9.32;5.30;;;;;;;;;;5038149;28;93528;-76
2022/01/29 10:25:09;;;;;;;14.20;5.93;;;;;;;;;;5038440;28;92853;-76
2022/01/29 10:27:36;;;;;;;16.40;5.13;;;;;;;;;;5038282;28;93443;-75
2022/01/29 10:30:10;;;;;;;9.85;5.10;;;;;;;;;;5037746;28;93283;-75
2022/01/29 10:32:36;;;;;;;12.45;4.95;;;;;;;;;;5038324;28;92152;-75
2022/01/29 10:35:03;;;;;;;14.90;4.35;;;;;;;;;;5038632;28;92473;-79
2022/01/29 10:37:29;;;;;;;13.85;4.97;;;;;;;;;;5019985;28;94622;-75
2022/01/29 10:39:57;;;;;;;13.95;4.15;;;;;;;;;;5037959;28;92443;-74
2022/01/29 10:42:25;;;;;;;11.32;3.60;;;;;;;;;;5038750;28;95473;-73
2022/01/29 10:44:52;;;;;;;10.63;4.20;;;;;;;;;;5037812;28;92142;-75
2022/01/29 10:47:19;;;;;;;11.15;4.35;;;;;;;;;;5037989;28;92590;-75
2022/01/29 10:49:50;;;;;;;10.88;4.32;;;;;;;;;;5037751;28;93651;-74
2022/01/29 10:52:17;;;;;;;13.60;4.28;;;;;;;;;;5037727;28;92242;-74
2022/01/29 10:54:47;;;;;;;9.80;3.67;;;;;;;;;;5037598;28;92794;-75
2022/01/29 10:57:17;;;;;;;7.15;3.40;;;;;;;;;;5037377;28;94004;-73
2022/01/29 10:59:46;;;;;;;10.73;3.40;;;;;;;;;;5038166;28;91764;-72
2022/01/29 11:02:12;;;;;;;11.15;3.22;;;;;;;;;;5037749;28;93090;-71
2022/01/29 11:04:40;;;;;;;7.82;2.80;;;;;;;;;;5040165;28;93567;-71
2022/01/29 11:07:14;;;;;;;14.88;3.40;;;;;;;;;;5036151;28;94719;-71
2022/01/29 11:09:42;;;;;;;8.70;2.88;;;;;;;;;;5037198;28;93665;-72
2022/01/29 11:12:10;;;;;;;7.63;2.97;;;;;;;;;;5037733;28;93431;-72
2022/01/29 11:14:36;;;;;;;4.93;2.28;;;;;;;;;;5037739;28;93352;-71
2022/01/29 11:17:03;;;;;;;5.43;2.05;;;;;;;;;;5037309;28;93778;-71
2022/01/29 11:19:31;;;;;;;7.85;2.17;;;;;;;;;;5037249;28;92310;-80
2022/01/29 11:21:59;;;;;;;3.97;2.28;;;;;;;;;;5037143;28;92807;-75
2022/01/29 11:24:32;;;;;;;3.78;1.73;;;;;;;;;;5037566;28;93289;-75
2022/01/29 11:26:59;;;;;;;4.63;2.28;;;;;;;;;;5040448;28;92262;-74
2022/01/29 11:29:26;;;;;;;4.18;1.90;;;;;;;;;;5037460;28;93488;-76
2022/01/29 11:32:12;;;;;;;8.35;1.90;;;;;;;;;;5035399;28;94953;-74
2022/01/29 11:34:57;;;;;;;6.50;1.90;;;;;;;;;;5019045;28;95635;-76
2022/01/29 11:37:42;;;;;;;5.88;1.65;;;;;;;;;;5036883;28;94097;-76
2022/01/29 11:40:10;;;;;;;4.30;2.22;;;;;;;;;;5037299;28;92372;-75
2022/01/29 11:42:36;;;;;;;4.40;2.20;;;;;;;;;;5036963;28;93361;-75
2022/01/29 11:45:31;;;;;;;5.57;2.20;;;;;;;;;;5036626;28;93674;-75
2022/01/29 11:47:58;;;;;;;4.47;2.13;;;;;;;;;;5037207;28;92180;-76
2022/01/29 11:50:27;;;;;;;3.45;1.85;;;;;;;;;;5040520;28;93676;-76
2022/01/29 11:52:54;;;;;;;3.65;2.05;;;;;;;;;;5036721;28;93460;-75
2022/01/29 11:55:34;;;;;;;3.13;1.90;;;;;;;;;;5036365;28;92957;-75
2022/01/29 11:58:13;;;;;;;8.93;1.70;;;;;;;;;;5035176;28;96287;-76
2022/01/29 12:00:41;;;;;;;2.17;1.67;;;;;;;;;;5018733;28;93090;-76
2022/01/29 12:03:28;;;;;;;7.95;1.75;;;;;;;;;;5036752;28;93746;-75
2022/01/29 12:06:08;;;;;;;6.15;2.00;;;;;;;;;;5035884;28;93874;-75
2022/01/29 12:08:41;;;;;;;5.97;2.25;;;;;;;;;;5018957;28;92285;-76
2022/01/29 12:11:14;;;;;;;5.35;2.13;;;;;;;;;;5039988;28;92897;-75
2022/01/29 12:13:41;;;;;;;9.15;2.50;;;;;;;;;;5036879;28;92239;-76
2022/01/29 12:16:27;;;;;;;4.47;2.10;;;;;;;;;;5036887;27;92951;-78
2022/01/29 12:18:54;;;;;;;6.32;2.63;;;;;;;;;;5039694;28;92611;-77
2022/01/29 12:21:22;;;;;;;5.63;2.70;;;;;;;;;;5040420;28;92315;-76
2022/01/29 12:23:49;;;;;;;5.70;2.50;;;;;;;;;;5038534;28;94740;-76
2022/01/29 12:26:19;;;;;;;2.90;1.83;;;;;;;;;;5040016;28;93972;-76
2022/01/29 12:28:47;;;;;;;7.60;2.33;;;;;;;;;;5054475;27;92327;-76
2022/01/29 12:31:15;;;;;;;5.07;2.15;;;;;;;;;;5060352;27;93368;-75
2022/01/29 12:33:41;;;;;;;6.25;2.40;;;;;;;;;;5063268;27;93572;-77
2022/01/29 12:36:09;;;;;;;5.18;2.33;;;;;;;;;;5060422;27;93471;-76
2022/01/29 12:38:39;;;;;;;5.22;2.33;;;;;;;;;;5060258;27;93663;-76
2022/01/29 12:41:10;;;;;;;4.78;2.53;;;;;;;;;;5060633;27;91564;-76
2022/01/29 12:43:52;;;;;;;5.80;2.38;;;;;;;;;;5059733;27;92922;-75
2022/01/29 12:46:20;;;;;;;2.47;2.13;;;;;;;;;;5060030;27;93829;-75
2022/01/29 12:48:57;;;;;;;5.07;2.25;;;;;;;;;;5058390;27;94790;-76
2022/01/29 12:51:24;;;;;;;9.90;2.65;;;;;;;;;;5059485;27;95611;-76
2022/01/29 12:53:58;;;;;;;9.50;2.60;;;;;;;;;;5059189;27;93618;-75
2022/01/29 12:56:32;;;;;;;5.93;2.60;;;;;;;;;;5063085;27;92268;-76
2022/01/29 12:58:59;;;;;;;2.63;2.40;;;;;;;;;;5059875;27;93691;-74
2022/01/29 13:01:26;;;;;;;5.57;2.10;;;;;;;;;;5059950;27;92300;-77
2022/01/29 13:03:59;;;;;;;7.03;2.35;;;;;;;;;;5059968;27;93808;-77
2022/01/29 13:06:25;;;;;;;5.95;3.22;;;;;;;;;;5059800;27;92985;-76
2022/01/29 13:08:52;;;;;;;5.30;2.40;;;;;;;;;;5059799;27;92453;-77
2022/01/29 13:11:25;;;;;;;8.77;2.60;;;;;;;;;;5041900;27;93325;-76
2022/01/29 13:13:57;;;;;;;8.35;3.08;;;;;;;;;;5057748;27;96162;-76
2022/01/29 13:16:31;;;;;;;8.10;2.60;;;;;;;;;;5059707;27;92336;-75
2022/01/29 13:18:58;;;;;;;12.48;3.03;;;;;;;;;;5062311;27;93284;-76
2022/01/29 13:21:27;;;;;;;7.25;3.10;;;;;;;;;;5059796;27;92317;-76
2022/01/29 13:23:56;;;;;;;8.10;2.53;;;;;;;;;;5041797;27;93452;-77
2022/01/29 13:26:29;;;;;;;4.53;2.60;;;;;;;;;;5059225;27;93114;-76
2022/01/29 13:29:02;;;;;;;3.88;2.17;;;;;;;;;;5059145;27;93194;-76
2022/01/29 13:31:29;;;;;;;6.13;2.53;;;;;;;;;;5059485;27;93442;-77
2022/01/29 13:33:57;;;;;;;5.78;2.33;;;;;;;;;;5059157;27;93906;-75
2022/01/29 13:36:35;;;;;;;3.25;1.95;;;;;;;;;;5059519;27;92129;-76
2022/01/29 13:39:09;;;;;;;10.10;2.45;;;;;;;;;;5039792;27;96536;-76
2022/01/29 13:41:36;;;;;;;7.20;2.40;;;;;;;;;;5044048;27;94579;-78
2022/01/29 13:44:09;;;;;;;8.75;2.63;;;;;;;;;;5058877;27;92284;-75
2022/01/29 13:46:36;;;;;;;6.90;3.25;;;;;;;;;;5059232;27;93263;-78
2022/01/29 13:49:03;;;;;;;11.13;3.08;;;;;;;;;;5059041;27;92391;-77
2022/01/29 13:51:30;;;;;;;8.55;2.40;;;;;;;;;;5058738;27;93469;-78
2022/01/29 13:53:58;;;;;;;8.48;4.38;;;;;;;;;;5024060;27;94686;-76
2022/01/29 13:56:27;;;;;;;7.65;4.10;;;;;;;;;;5059095;27;91618;-78
2022/01/29 13:58:54;;;;;;;8.85;3.70;;;;;;;;;;5058957;27;92445;-76
2022/01/29 14:01:38;;;;;;;6.38;2.75;;;;;;;;;;5059124;27;93503;-77
2022/01/29 14:04:06;;;;;;;5.65;2.20;;;;;;;;;;5060535;27;94741;-76
2022/01/29 14:06:34;;;;;;;9.13;2.80;;;;;;;;;;5058678;27;93812;-76
2022/01/29 14:09:12;;;;;;;9.10;2.55;;;;;;;;;;5058520;27;92363;-78
2022/01/29 14:11:51;;;;;;;5.97;2.45;;;;;;;;;;5058900;27;93509;-76
2022/01/29 14:14:21;;;;;;;9.40;2.50;;;;;;;;;;5058674;27;92604;-76
2022/01/29 14:16:47;;;;;;;11.57;2.50;;;;;;;;;;5058698;27;92305;-76
2022/01/29 14:19:16;;;;;;;9.52;2.50;;;;;;;;;;5058440;27;93094;-77
2022/01/29 14:21:43;;;;;;;6.70;1.90;;;;;;;;;;5059044;27;93263;-76
2022/01/29 14:24:09;;;;;;;12.45;2.17;;;;;;;;;;5061688;27;92320;-76
2022/01/29 14:26:36;;;;;;;7.80;1.85;;;;;;;;;;5058495;27;93617;-75
2022/01/29 14:29:03;;;;;;;12.65;1.95;;;;;;;;;;5057083;27;94676;-76
2022/01/29 14:31:29;;;;;;;13.55;2.45;;;;;;;;;;5058307;27;95698;-75
2022/01/29 14:33:55;;;;;;;8.15;2.60;;;;;;;;;;5057801;27;92432;-75
2022/01/29 14:36:22;;;;;;;8.77;2.20;;;;;;;;;;5058319;27;92268;-76
2022/01/29 14:38:53;;;;;;;6.95;2.70;;;;;;;;;;5058317;27;93305;-76
2022/01/29 14:41:20;;;;;;;8.40;2.80;;;;;;;;;;5039610;27;93660;-76